Terminal Aerodrome Forecast
Issued by NWS Sterling, VA

Current Version | Previous Version | Text Only | Print | Product List | Glossary Off
Versions: 1 2 3 4 5 6 7 8 9 10 11 12 13 14 15 16 17 18 19 20

727
FTUS41 KLWX 251126
TAFIAD
TAF
KIAD 251126Z 2512/2618 29004KT P6SM SKC
     FM251500 29005KT P6SM FEW050
     FM252000 23006KT P6SM FEW060
     FM260800 00000KT P6SM SCT060
     FM261200 00000KT P6SM BKN090
     FM261600 24004KT P6SM BKN060=

USA.gov is the U.S. government's official web portal to all federal, state and local government web resources and services.